createdAt,value
2019-03-04T00:00:59.829Z,11.79
2019-03-04T00:05:55.746Z,11.74
2019-03-04T00:10:51.691Z,11.82
2019-03-04T00:15:47.605Z,11.87
2019-03-04T00:20:43.523Z,11.90
2019-03-04T00:25:39.608Z,11.89
2019-03-04T00:30:35.538Z,11.92
2019-03-04T00:35:31.484Z,12.00
2019-03-04T00:40:27.500Z,12.02
2019-03-04T00:45:23.431Z,12.10
2019-03-04T00:50:19.708Z,12.10
2019-03-04T00:55:15.926Z,12.22
2019-03-04T01:00:17.892Z,12.15
2019-03-04T01:05:14.023Z,12.19
2019-03-04T01:10:12.049Z,12.15
2019-03-04T01:15:13.560Z,12.15
2019-03-04T01:20:13.462Z,12.16
2019-03-04T01:25:15.650Z,12.24
2019-03-04T01:30:22.746Z,12.22
2019-03-04T01:35:18.996Z,12.25
2019-03-04T01:40:20.596Z,12.27
2019-03-04T01:45:17.419Z,12.30
2019-03-04T01:50:14.933Z,12.32
2019-03-04T01:55:12.253Z,12.32
2019-03-04T02:00:11.071Z,12.27
2019-03-04T02:05:07.424Z,12.33
2019-03-04T02:10:06.956Z,12.31
2019-03-04T02:15:05.678Z,12.30
2019-03-04T02:20:04.226Z,12.33
2019-03-04T02:25:00.337Z,12.30
2019-03-04T02:29:56.253Z,12.27
2019-03-04T02:34:52.271Z,12.24
2019-03-04T02:39:48.268Z,12.31
2019-03-04T02:44:44.187Z,12.29
2019-03-04T02:49:40.105Z,12.31
2019-03-04T02:54:36.028Z,12.29
2019-03-04T02:59:31.985Z,12.27
2019-03-04T03:04:27.913Z,12.29
2019-03-04T03:09:23.831Z,12.27
2019-03-04T03:14:19.744Z,12.30
2019-03-04T03:19:15.712Z,12.22
2019-03-04T03:24:11.796Z,12.26
2019-03-04T03:29:07.735Z,12.11
2019-03-04T03:34:03.675Z,12.04
2019-03-04T03:39:00.303Z,12.06
2019-03-04T03:43:56.193Z,11.98
2019-03-04T03:48:52.134Z,12.02
2019-03-04T03:53:48.064Z,11.90
2019-03-04T03:58:44.090Z,11.93
2019-03-04T04:03:40.040Z,11.90
2019-03-04T04:08:37.158Z,11.82
2019-03-04T04:13:33.083Z,11.89
2019-03-04T04:18:29.020Z,11.78
2019-03-04T04:23:24.945Z,11.73
2019-03-04T04:28:20.879Z,11.88
2019-03-04T04:33:16.819Z,11.91
2019-03-04T04:38:19.418Z,11.92
2019-03-04T04:43:17.234Z,12.01
2019-03-04T04:48:13.204Z,12.36
2019-03-04T04:53:09.120Z,12.35
2019-03-04T04:58:05.144Z,12.50
2019-03-04T05:03:01.219Z,12.60
2019-03-04T05:07:57.135Z,12.57
2019-03-04T05:12:53.054Z,12.68
2019-03-04T05:17:49.031Z,12.78
2019-03-04T05:22:44.956Z,12.81
2019-03-04T05:27:40.993Z,12.79
2019-03-04T05:32:36.914Z,12.84
2019-03-04T05:37:32.862Z,12.84
2019-03-04T05:42:28.783Z,12.81
2019-03-04T05:47:24.675Z,12.90
2019-03-04T05:52:20.588Z,12.88
2019-03-04T05:57:16.620Z,12.91
2019-03-04T06:02:12.547Z,13.08
2019-03-04T06:07:10.377Z,13.14
2019-03-04T06:12:06.305Z,13.18
2019-03-04T06:17:02.227Z,13.25
2019-03-04T06:21:58.269Z,13.16
2019-03-04T06:26:54.368Z,13.22
2019-03-04T06:31:50.285Z,13.32
2019-03-04T06:36:46.333Z,13.26
2019-03-04T06:41:42.761Z,13.23
2019-03-04T06:46:38.799Z,13.19
2019-03-04T06:51:36.941Z,13.18
2019-03-04T06:56:45.815Z,13.22
2019-03-04T07:02:13.676Z,13.24
2019-03-04T07:07:09.611Z,13.25
2019-03-04T07:12:05.551Z,13.14
2019-03-04T07:17:01.474Z,12.98
2019-03-04T07:21:59.902Z,12.25
2019-03-04T07:26:55.921Z,7.19
2019-03-04T07:31:51.842Z,7.25
2019-03-04T07:36:47.782Z,7.72
2019-03-04T07:41:43.776Z,7.79
2019-03-04T07:46:39.764Z,7.84
2019-03-04T07:51:35.698Z,8.01
2019-03-04T07:56:31.718Z,8.14
2019-03-04T08:01:27.655Z,8.30
2019-03-04T08:06:23.568Z,8.39
2019-03-04T08:11:56.833Z,8.43
2019-03-04T08:16:52.774Z,8.55
2019-03-04T08:21:48.722Z,8.73
2019-03-04T08:26:44.641Z,8.83
2019-03-04T08:31:40.661Z,8.98
2019-03-04T08:36:36.603Z,9.09
2019-03-04T08:41:32.522Z,9.26
2019-03-04T08:46:28.444Z,9.30
2019-03-04T08:51:24.358Z,9.36
2019-03-04T08:56:20.276Z,9.56
2019-03-04T09:01:16.300Z,10.02
2019-03-04T09:06:12.386Z,10.46
2019-03-04T09:11:08.909Z,10.47
2019-03-04T09:16:04.853Z,10.43
2019-03-04T09:21:00.777Z,10.25
2019-03-04T09:26:03.207Z,10.15
2019-03-04T09:30:59.267Z,10.19
2019-03-04T09:35:55.328Z,9.85
2019-03-04T09:40:51.348Z,9.81
2019-03-04T09:45:47.370Z,10.31
2019-03-04T09:50:43.549Z,10.63
2019-03-04T09:55:40.320Z,10.85
2019-03-04T10:00:42.857Z,11.19
2019-03-04T10:06:07.047Z,11.13
2019-03-04T10:11:27.111Z,11.23
2019-03-04T10:16:41.927Z,11.19
2019-03-04T10:21:50.916Z,11.40
2019-03-04T10:27:07.343Z,11.45
2019-03-04T10:32:07.071Z,11.30
2019-03-04T10:37:42.086Z,11.32
2019-03-04T10:42:53.600Z,11.16
2019-03-04T10:47:49.512Z,11.08
2019-03-04T10:52:45.460Z,10.77
2019-03-04T10:57:41.371Z,10.44
2019-03-04T11:02:37.297Z,9.98
2019-03-04T11:07:33.218Z,9.01
2019-03-04T11:12:29.125Z,8.66
2019-03-04T11:17:25.035Z,8.60
2019-03-04T11:22:20.945Z,8.77
2019-03-04T11:27:17.055Z,8.87
2019-03-04T11:32:12.960Z,9.05
2019-03-04T11:37:08.902Z,9.12
2019-03-04T11:42:04.810Z,9.16
2019-03-04T11:47:00.727Z,9.22
2019-03-04T11:51:56.658Z,9.34
2019-03-04T11:56:52.688Z,9.40
2019-03-04T12:01:49.219Z,9.46
2019-03-04T12:06:45.134Z,9.61
2019-03-04T12:11:41.142Z,9.55
2019-03-04T12:16:37.051Z,9.38
2019-03-04T12:21:33.277Z,5.52
2019-03-04T12:26:29.235Z,5.76
2019-03-04T12:31:28.430Z,5.97
2019-03-04T12:36:24.615Z,6.08
2019-03-04T12:41:20.617Z,6.24
2019-03-04T12:46:16.528Z,6.50
2019-03-04T12:51:12.438Z,6.62
2019-03-04T12:56:08.364Z,6.78
2019-03-04T13:01:04.366Z,6.85
2019-03-04T13:06:00.292Z,6.85
2019-03-04T13:10:56.208Z,6.93
2019-03-04T13:15:52.417Z,7.03
2019-03-04T13:20:48.320Z,7.10
2019-03-04T13:25:45.106Z,7.29
2019-03-04T13:30:45.602Z,7.43
2019-03-04T13:35:42.781Z,7.67
2019-03-04T13:40:38.797Z,7.97
2019-03-04T13:45:35.005Z,8.04
2019-03-04T13:50:35.557Z,8.01
2019-03-04T13:55:31.474Z,8.14
2019-03-04T14:00:41.977Z,8.29
2019-03-04T14:05:37.988Z,8.53
2019-03-04T14:11:03.521Z,8.64
2019-03-04T14:16:03.299Z,8.44
2019-03-04T14:21:01.860Z,8.19
2019-03-04T14:26:00.128Z,8.28
2019-03-04T14:30:56.334Z,8.22
2019-03-04T14:35:53.271Z,8.22
2019-03-04T14:40:51.536Z,8.31
2019-03-04T14:45:48.330Z,8.29
2019-03-04T14:50:45.035Z,8.31
2019-03-04T14:55:42.741Z,8.16
2019-03-04T15:00:42.134Z,8.36
2019-03-04T15:05:39.011Z,8.45
2019-03-04T15:10:35.906Z,8.50
2019-03-04T15:15:33.965Z,8.48
2019-03-04T15:20:33.477Z,8.43
2019-03-04T15:25:56.642Z,8.32
2019-03-04T15:31:00.313Z,8.41
2019-03-04T15:35:57.827Z,8.46
2019-03-04T15:40:54.684Z,8.46
2019-03-04T15:45:58.606Z,8.50
2019-03-04T15:50:55.861Z,8.54
2019-03-04T15:55:58.709Z,8.49
2019-03-04T16:00:56.397Z,8.44
2019-03-04T16:05:54.474Z,8.44
2019-03-04T16:10:51.397Z,8.41
2019-03-04T16:15:47.643Z,8.37
2019-03-04T16:20:44.112Z,8.31
2019-03-04T16:25:40.637Z,8.27
2019-03-04T16:30:36.791Z,8.22
2019-03-04T16:35:32.732Z,8.17
2019-03-04T16:40:29.665Z,8.10
2019-03-04T16:45:27.242Z,8.01
2019-03-04T16:50:26.471Z,7.93
2019-03-04T16:55:22.435Z,7.88
2019-03-04T17:00:19.755Z,7.79
2019-03-04T17:05:17.298Z,7.76
2019-03-04T17:10:23.855Z,7.70
2019-03-04T17:15:21.875Z,7.62
2019-03-04T17:20:19.106Z,7.58
2019-03-04T17:25:25.248Z,7.51
2019-03-04T17:30:23.527Z,7.52
2019-03-04T17:35:20.749Z,7.43
2019-03-04T17:40:18.453Z,7.35
2019-03-04T17:45:24.491Z,7.41
2019-03-04T17:50:31.149Z,7.40
2019-03-04T17:55:27.285Z,7.47
2019-03-04T18:00:23.232Z,7.49
2019-03-04T18:05:21.564Z,7.42
2019-03-04T18:10:18.754Z,7.38
2019-03-04T18:15:27.207Z,7.26
2019-03-04T18:20:33.606Z,7.23
2019-03-04T18:25:31.092Z,7.24
2019-03-04T18:30:39.832Z,7.27
2019-03-04T18:35:51.602Z,7.26
2019-03-04T18:41:09.609Z,7.23
2019-03-04T18:46:36.122Z,7.21
2019-03-04T18:51:32.902Z,7.17
2019-03-04T18:56:28.806Z,7.04
2019-03-04T19:01:24.940Z,7.02
2019-03-04T19:06:20.845Z,6.92
2019-03-04T19:11:16.798Z,6.90
2019-03-04T19:16:12.735Z,6.81
2019-03-04T19:21:08.857Z,6.83
2019-03-04T19:26:04.766Z,6.80
2019-03-04T19:31:00.743Z,6.80
2019-03-04T19:35:56.682Z,6.79
2019-03-04T19:40:53.752Z,6.80
2019-03-04T19:45:50.188Z,6.85
2019-03-04T19:50:47.486Z,6.94
2019-03-04T19:55:43.859Z,7.02
2019-03-04T20:00:40.139Z,7.11
2019-03-04T20:05:36.099Z,7.15
2019-03-04T20:10:32.019Z,7.15
2019-03-04T20:15:29.951Z,7.18
2019-03-04T20:20:29.083Z,7.20
2019-03-04T20:25:25.445Z,7.22
2019-03-04T20:30:23.075Z,7.29
2019-03-04T20:35:20.539Z,7.26
2019-03-04T20:40:16.681Z,7.13
2019-03-04T20:45:14.219Z,7.07
2019-03-04T20:50:19.235Z,7.07
2019-03-04T20:55:15.401Z,6.98
2019-03-04T21:00:36.178Z,6.94
2019-03-04T21:05:32.944Z,6.85
2019-03-04T21:10:29.008Z,6.88
2019-03-04T21:15:25.549Z,6.95
2019-03-04T21:20:22.611Z,7.01
2019-03-04T21:25:42.346Z,7.02
2019-03-04T21:30:44.977Z,6.97
2019-03-04T21:35:53.821Z,6.90
2019-03-04T21:40:55.344Z,6.93
2019-03-04T21:46:16.463Z,6.89
2019-03-04T21:51:37.853Z,6.95
2019-03-04T21:56:44.999Z,7.06
2019-03-04T22:01:47.994Z,7.20
2019-03-04T22:06:43.904Z,7.25
2019-03-04T22:11:39.847Z,7.26
2019-03-04T22:16:35.838Z,7.31
2019-03-04T22:21:31.768Z,7.26
2019-03-04T22:26:27.732Z,7.28
2019-03-04T22:31:24.394Z,7.25
2019-03-04T22:36:20.329Z,7.29
2019-03-04T22:41:16.237Z,7.36
2019-03-04T22:46:12.195Z,7.33
2019-03-04T22:51:08.278Z,7.46
2019-03-04T22:56:04.288Z,7.41
2019-03-04T23:01:05.920Z,7.27
2019-03-04T23:06:27.074Z,7.03
2019-03-04T23:11:26.816Z,6.82
2019-03-04T23:16:28.542Z,6.53
2019-03-04T23:21:24.449Z,6.31
2019-03-04T23:26:20.432Z,6.02
2019-03-04T23:31:16.363Z,5.86
2019-03-04T23:36:12.355Z,5.93
2019-03-04T23:41:08.257Z,5.98
2019-03-04T23:46:04.260Z,6.05
2019-03-04T23:51:00.764Z,6.08
2019-03-04T23:55:56.656Z,6.03
